Time;durP1;ratioP1;P1;durP2;ratioP2;P2;SDS_P1;SDS_P2;PMS_P1;PMS_P2;Temp;Humidity;BMP_temperature;BMP_pressure;BME280_temperature;BME280_humidity;BME280_pressure;Samples;Min_cycle;Max_cycle;Signal;HPM_P1;HPM_P2
2022/09/09 00:01:52;;;;;;;1.80;1.38;;;16.80;99.90;;;;;;5067218;28;19915;-35
2022/09/09 00:04:29;;;;;;;1.80;1.40;;;16.80;99.90;;;;;;5063459;28;20032;-35
2022/09/09 00:07:05;;;;;;;2.22;1.70;;;16.80;99.90;;;;;;5065902;28;20047;-35
2022/09/09 00:09:41;;;;;;;2.67;1.88;;;16.80;99.90;;;;;;5063395;28;20198;-36
2022/09/09 00:12:24;;;;;;;1.90;1.80;;;16.80;99.90;;;;;;5047934;28;20021;-37
2022/09/09 00:15:02;;;;;;;2.10;1.67;;;16.80;99.90;;;;;;5064925;28;20039;-36
2022/09/09 00:17:46;;;;;;;1.65;1.55;;;16.80;99.90;;;;;;5065912;28;20043;-36
2022/09/09 00:20:25;;;;;;;1.70;1.60;;;16.80;99.90;;;;;;5055100;28;20044;-36
2022/09/09 00:23:03;;;;;;;1.88;1.70;;;16.80;99.90;;;;;;5065284;28;20779;-35
2022/09/09 00:25:37;;;;;;;1.80;1.70;;;16.80;99.90;;;;;;5055534;28;20036;-38
2022/09/09 00:28:08;;;;;;;1.70;1.60;;;16.80;99.90;;;;;;5065950;28;20051;-35
2022/09/09 00:30:36;;;;;;;2.47;1.85;;;16.80;99.90;;;;;;5054389;28;20339;-37
2022/09/09 00:33:11;;;;;;;2.20;1.98;;;16.70;99.90;;;;;;5065454;28;20123;-37
2022/09/09 00:35:39;;;;;;;2.10;1.90;;;16.80;99.90;;;;;;5065748;28;20082;-36
2022/09/09 00:38:28;;;;;;;2.53;2.22;;;16.80;99.90;;;;;;5064896;28;20040;-36
2022/09/09 00:41:07;;;;;;;3.33;2.15;;;16.80;99.90;;;;;;5055010;28;20438;-36
2022/09/09 00:43:36;;;;;;;2.65;2.00;;;16.80;99.90;;;;;;5065155;28;20037;-36
2022/09/09 00:46:10;;;;;;;2.55;2.30;;;16.80;99.90;;;;;;5065310;28;20055;-37
2022/09/09 00:48:59;;;;;;;2.42;1.52;;;16.80;99.90;;;;;;5065922;28;20037;-37
2022/09/09 00:51:50;;;;;;;2.97;2.00;;;16.80;99.90;;;;;;5055049;28;20483;-36
2022/09/09 00:54:30;;;;;;;1.92;1.52;;;16.80;99.90;;;;;;5065346;28;20029;-34
2022/09/09 00:57:31;;;;;;;2.42;1.90;;;16.80;99.90;;;;;;5065068;28;20323;-35
2022/09/09 01:00:17;;;;;;;2.72;1.80;;;16.80;99.90;;;;;;5064221;28;20078;-36
2022/09/09 01:02:56;;;;;;;2.00;1.70;;;16.70;99.90;;;;;;5065497;28;20064;-36
2022/09/09 01:05:59;;;;;;;2.05;1.40;;;16.70;99.90;;;;;;5064511;28;20554;-43
2022/09/09 01:08:36;;;;;;;;;;;16.60;99.90;;;;;;5045515;28;20082;-37
2022/09/09 01:11:02;;;;;;;2.85;1.70;;;16.50;99.90;;;;;;5063469;28;19908;-37
2022/09/09 01:13:36;;;;;;;3.40;1.65;;;16.50;99.90;;;;;;5064739;28;20055;-36
2022/09/09 01:16:05;;;;;;;2.28;1.63;;;16.50;99.90;;;;;;5064954;28;20037;-36
2022/09/09 01:18:52;;;;;;;2.63;1.52;;;16.50;99.90;;;;;;5045558;28;20033;-37
2022/09/09 01:21:38;;;;;;;1.58;1.48;;;16.40;99.90;;;;;;5062288;28;20032;-35
2022/09/09 01:24:28;;;;;;;1.98;1.80;;;16.40;99.90;;;;;;5065758;28;20445;-36
2022/09/09 01:27:00;;;;;;;2.13;1.55;;;16.40;99.90;;;;;;5064270;28;20112;-36
2022/09/09 01:29:29;;;;;;;1.50;1.40;;;16.50;99.90;;;;;;5065005;28;20032;-35
2022/09/09 01:31:59;;;;;;;3.03;1.33;;;16.40;99.90;;;;;;5064594;28;20021;-36
2022/09/09 01:34:29;;;;;;;2.20;1.30;;;16.40;99.90;;;;;;5063817;28;20388;-37
2022/09/09 01:37:07;;;;;;;1.63;1.40;;;16.40;99.90;;;;;;5064289;28;20032;-37
2022/09/09 01:39:35;;;;;;;1.35;1.20;;;16.30;99.90;;;;;;5064426;28;20039;-36
2022/09/09 01:42:02;;;;;;;2.35;1.50;;;16.30;99.90;;;;;;5062844;28;20025;-36
2022/09/09 01:44:28;;;;;;;1.60;1.30;;;16.30;99.90;;;;;;5060388;28;20108;-37
2022/09/09 01:46:54;;;;;;;4.18;1.27;;;16.20;99.90;;;;;;5059884;28;20437;-36
2022/09/09 01:49:20;;;;;;;1.88;1.27;;;16.20;99.90;;;;;;5064391;28;20593;-35
2022/09/09 01:51:50;;;;;;;1.27;1.05;;;16.20;99.90;;;;;;5064504;28;20028;-36
2022/09/09 01:54:15;;;;;;;2.25;1.40;;;16.20;99.90;;;;;;5064182;28;20024;-36
2022/09/09 01:57:08;;;;;;;1.95;1.45;;;16.20;99.90;;;;;;5064075;28;20597;-35
2022/09/09 02:00:13;;;;;;;2.10;1.38;;;16.20;99.90;;;;;;5065618;28;20538;-35
2022/09/09 02:03:23;;;;;;;2.85;1.23;;;16.10;99.90;;;;;;5021100;28;20385;-35
2022/09/09 02:06:07;;;;;;;1.55;1.40;;;16.10;99.90;;;;;;5064453;28;20024;-35
2022/09/09 02:08:45;;;;;;;3.20;1.60;;;16.10;99.90;;;;;;5063444;28;20044;-36
2022/09/09 02:11:14;;;;;;;1.77;1.30;;;16.10;99.90;;;;;;5064207;28;20090;-37
2022/09/09 02:13:42;;;;;;;2.38;1.40;;;16.10;99.90;;;;;;5063879;28;20085;-36
2022/09/09 02:16:15;;;;;;;1.70;1.60;;;16.10;99.90;;;;;;5063212;28;20052;-37
2022/09/09 02:18:53;;;;;;;2.10;1.42;;;16.10;99.90;;;;;;5063694;28;20182;-37
2022/09/09 02:21:19;;;;;;;1.60;1.50;;;16.10;99.90;;;;;;5064973;28;20363;-37
2022/09/09 02:23:47;;;;;;;1.83;1.45;;;16.10;99.90;;;;;;5063220;28;20047;-36
2022/09/09 02:26:20;;;;;;;1.40;1.30;;;16.10;99.90;;;;;;5064953;28;20302;-36
2022/09/09 02:28:46;;;;;;;2.28;1.30;;;16.10;99.90;;;;;;5063860;28;20028;-37
2022/09/09 02:31:14;;;;;;;1.42;1.33;;;16.00;99.90;;;;;;5063945;28;20102;-36
2022/09/09 02:33:44;;;;;;;1.35;1.25;;;16.00;99.90;;;;;;5063861;28;20124;-36
2022/09/09 02:36:11;;;;;;;1.65;1.23;;;16.00;99.90;;;;;;5064122;28;20481;-36
2022/09/09 02:38:42;;;;;;;4.13;1.60;;;15.90;99.90;;;;;;5063461;28;20021;-36
2022/09/09 02:41:08;;;;;;;1.40;1.30;;;15.90;99.90;;;;;;5064289;28;20028;-35
2022/09/09 02:43:34;;;;;;;2.53;1.80;;;15.90;99.90;;;;;;5062819;28;20110;-36
2022/09/09 02:46:18;;;;;;;2.35;1.60;;;15.90;99.90;;;;;;5063643;28;20081;-36
2022/09/09 02:48:55;;;;;;;2.53;1.50;;;15.90;99.90;;;;;;5067169;28;20040;-37
2022/09/09 02:51:41;;;;;;;2.00;1.60;;;15.80;99.90;;;;;;5067400;28;20435;-37
2022/09/09 02:54:30;;;;;;;2.10;1.60;;;15.80;99.90;;;;;;5067428;28;20439;-37
2022/09/09 02:57:11;;;;;;;3.30;1.70;;;15.80;99.90;;;;;;5047490;28;20106;-35
2022/09/09 02:59:40;;;;;;;3.25;1.75;;;15.80;99.90;;;;;;5064246;28;20024;-35
2022/09/09 03:02:05;;;;;;;2.13;1.63;;;15.80;99.90;;;;;;5068108;28;20021;-36
2022/09/09 03:04:31;;;;;;;1.50;1.40;;;15.80;99.90;;;;;;5066504;28;20074;-35
2022/09/09 03:06:58;;;;;;;2.83;1.73;;;15.80;99.90;;;;;;5067275;28;20106;-35
2022/09/09 03:09:25;;;;;;;1.73;1.52;;;15.80;99.90;;;;;;5067138;28;20016;-36
2022/09/09 03:11:51;;;;;;;2.75;1.60;;;15.80;99.90;;;;;;5066844;28;20434;-36
2022/09/09 03:14:20;;;;;;;2.70;1.58;;;15.70;99.90;;;;;;5068214;28;20020;-37
2022/09/09 03:16:46;;;;;;;3.15;1.58;;;15.70;99.90;;;;;;5067451;28;20460;-36
2022/09/09 03:19:12;;;;;;;2.05;1.77;;;15.70;99.90;;;;;;5066740;28;20033;-35
2022/09/09 03:21:38;;;;;;;1.70;1.60;;;15.60;99.90;;;;;;5067468;28;20025;-36
2022/09/09 03:24:04;;;;;;;2.30;1.80;;;15.60;99.90;;;;;;5066479;28;20025;-36
2022/09/09 03:26:30;;;;;;;2.10;1.90;;;15.60;99.90;;;;;;5066192;28;20016;-36
2022/09/09 03:28:56;;;;;;;2.28;1.80;;;15.70;99.90;;;;;;5067123;28;20020;-36
2022/09/09 03:31:21;;;;;;;5.43;2.00;;;15.60;99.90;;;;;;5067263;28;20017;-35
2022/09/09 03:33:47;;;;;;;3.28;1.75;;;15.60;99.90;;;;;;5065725;28;20233;-35
2022/09/09 03:36:14;;;;;;;5.15;1.77;;;15.60;99.90;;;;;;5067387;28;20025;-36
2022/09/09 03:38:40;;;;;;;3.50;1.60;;;15.60;99.90;;;;;;5066824;28;20056;-37
2022/09/09 03:41:07;;;;;;;3.75;1.77;;;15.60;99.90;;;;;;5066004;28;20483;-36
2022/09/09 03:43:33;;;;;;;2.35;1.85;;;15.60;99.90;;;;;;5067633;28;20025;-36
2022/09/09 03:45:59;;;;;;;2.42;1.80;;;15.60;99.90;;;;;;5066704;28;20542;-37
2022/09/09 03:48:27;;;;;;;1.73;1.63;;;15.60;99.90;;;;;;5065563;28;20086;-37
2022/09/09 03:50:55;;;;;;;1.83;1.60;;;15.60;99.90;;;;;;5066383;28;20519;-35
2022/09/09 03:53:24;;;;;;;5.55;1.80;;;15.60;99.90;;;;;;5066970;28;20100;-35
2022/09/09 03:55:54;;;;;;;3.10;1.65;;;15.60;99.90;;;;;;5065422;28;20389;-37
2022/09/09 03:58:24;;;;;;;3.03;1.60;;;15.60;99.90;;;;;;5065658;28;20059;-35
2022/09/09 04:01:06;;;;;;;1.50;1.40;;;15.70;99.90;;;;;;5065361;28;20066;-35
2022/09/09 04:03:32;;;;;;;2.33;1.58;;;15.70;99.90;;;;;;5066221;28;20565;-36
2022/09/09 04:06:00;;;;;;;1.63;1.52;;;15.80;99.90;;;;;;5066511;28;20027;-36
2022/09/09 04:08:26;;;;;;;3.03;1.70;;;15.80;99.90;;;;;;5066031;28;20033;-37
2022/09/09 04:10:53;;;;;;;2.72;1.70;;;15.80;99.90;;;;;;5066321;28;20500;-36
2022/09/09 04:13:19;;;;;;;1.77;1.48;;;15.80;99.90;;;;;;5066608;28;20052;-35
2022/09/09 04:15:52;;;;;;;3.03;1.88;;;15.90;99.90;;;;;;5065625;28;20021;-37
2022/09/09 04:18:17;;;;;;;;;;;15.90;99.90;;;;;;5056469;28;20020;-38
2022/09/09 04:20:43;;;;;;;4.65;1.75;;;15.90;99.90;;;;;;5066153;28;19908;-37
2022/09/09 04:23:09;;;;;;;3.50;1.77;;;15.90;99.90;;;;;;5065807;28;20019;-36
2022/09/09 04:25:34;;;;;;;2.25;1.65;;;15.90;99.90;;;;;;5065299;28;20567;-36
2022/09/09 04:28:00;;;;;;;4.78;1.70;;;15.90;99.90;;;;;;5066009;28;20115;-36
2022/09/09 04:30:27;;;;;;;4.18;1.80;;;15.80;99.90;;;;;;5065571;28;20024;-36
2022/09/09 04:32:53;;;;;;;3.22;1.52;;;15.90;99.90;;;;;;5065471;28;20033;-37
2022/09/09 04:35:19;;;;;;;2.63;1.90;;;15.90;99.90;;;;;;5066244;28;20033;-38
2022/09/09 04:37:45;;;;;;;2.30;1.77;;;15.80;99.90;;;;;;5064802;28;20117;-36
2022/09/09 04:40:11;;;;;;;2.42;2.00;;;15.80;99.90;;;;;;5066401;28;20032;-35
2022/09/09 04:42:37;;;;;;;3.10;1.80;;;15.90;99.90;;;;;;5065762;28;20115;-36
2022/09/09 04:45:03;;;;;;;1.98;1.48;;;15.90;99.90;;;;;;5065003;28;20466;-37
2022/09/09 04:47:28;;;;;;;3.13;1.73;;;15.90;99.90;;;;;;5065372;28;20032;-36
2022/09/09 04:49:54;;;;;;;4.28;2.25;;;15.90;99.90;;;;;;5065250;28;20039;-37
2022/09/09 04:52:20;;;;;;;3.13;1.77;;;16.00;99.90;;;;;;5065452;28;20028;-39
2022/09/09 04:54:46;;;;;;;2.72;1.50;;;16.00;99.90;;;;;;5065059;28;20024;-36
2022/09/09 04:57:12;;;;;;;3.17;1.73;;;16.00;99.90;;;;;;5065207;28;20024;-36
2022/09/09 04:59:39;;;;;;;3.03;1.80;;;16.10;99.90;;;;;;5066356;28;20054;-37
2022/09/09 05:02:04;;;;;;;2.63;1.73;;;16.00;99.90;;;;;;5065207;28;20484;-37
2022/09/09 05:04:30;;;;;;;2.42;1.40;;;16.10;99.90;;;;;;5064546;28;20017;-36
2022/09/09 05:06:56;;;;;;;1.50;1.30;;;16.10;99.90;;;;;;5065534;28;20026;-36
2022/09/09 05:09:21;;;;;;;2.47;1.85;;;16.10;99.90;;;;;;5064644;28;20543;-36
2022/09/09 05:11:47;;;;;;;2.50;1.90;;;16.10;99.90;;;;;;5064623;28;20104;-36
2022/09/09 05:14:12;;;;;;;3.72;1.83;;;16.10;99.90;;;;;;5065154;28;20051;-35
2022/09/09 05:16:38;;;;;;;1.80;1.35;;;16.10;99.90;;;;;;5064986;28;20130;-39
2022/09/09 05:19:03;;;;;;;4.13;1.70;;;16.10;99.90;;;;;;5061828;28;20399;-36
2022/09/09 05:21:30;;;;;;;2.35;1.52;;;16.10;99.90;;;;;;5064473;28;20028;-36
2022/09/09 05:23:56;;;;;;;3.90;1.55;;;16.10;99.90;;;;;;5063851;28;20036;-35
2022/09/09 05:26:23;;;;;;;3.55;1.50;;;16.20;99.90;;;;;;5063985;28;20049;-38
2022/09/09 05:28:49;;;;;;;3.58;1.55;;;16.20;99.90;;;;;;5065294;28;20039;-37
2022/09/09 05:31:16;;;;;;;3.40;1.38;;;16.20;99.90;;;;;;5064943;28;20020;-36
2022/09/09 05:33:45;;;;;;;2.30;1.50;;;16.20;99.90;;;;;;5063564;28;20028;-36
2022/09/09 05:36:13;;;;;;;1.92;1.35;;;16.20;99.90;;;;;;5065546;28;20393;-37
2022/09/09 05:38:40;;;;;;;3.92;1.75;;;16.20;99.90;;;;;;5064011;28;20574;-37
2022/09/09 05:41:07;;;;;;;4.35;1.67;;;16.20;99.90;;;;;;5063397;28;20033;-36
2022/09/09 05:43:35;;;;;;;3.53;1.70;;;16.20;99.90;;;;;;5063984;28;20438;-36
2022/09/09 05:46:09;;;;;;;5.50;1.63;;;16.20;99.90;;;;;;5064696;28;20028;-36
2022/09/09 05:48:40;;;;;;;4.07;1.83;;;16.20;99.90;;;;;;5063906;28;20057;-36
2022/09/09 05:51:08;;;;;;;4.72;2.25;;;16.20;99.90;;;;;;5063625;28;20016;-37
2022/09/09 05:53:34;;;;;;;3.35;1.80;;;16.20;99.90;;;;;;5063404;28;20032;-35
2022/09/09 05:56:10;;;;;;;2.95;1.40;;;16.20;99.90;;;;;;5063885;28;20106;-36
2022/09/09 05:58:36;;;;;;;2.10;1.38;;;16.20;99.90;;;;;;5064517;28;20033;-36
2022/09/09 06:01:10;;;;;;;3.38;1.88;;;16.10;99.90;;;;;;5062206;28;20044;-38
2022/09/09 06:03:38;;;;;;;3.55;2.15;;;16.20;99.90;;;;;;5063902;28;20119;-38
2022/09/09 06:06:08;;;;;;;1.90;1.50;;;16.20;99.90;;;;;;5063761;28;20039;-37
2022/09/09 06:08:38;;;;;;;6.65;1.80;;;16.20;99.90;;;;;;5063992;28;20037;-38
2022/09/09 06:11:06;;;;;;;4.07;1.65;;;16.10;99.90;;;;;;5063603;28;20036;-37
2022/09/09 06:13:32;;;;;;;2.47;2.05;;;16.20;99.90;;;;;;5064306;28;20064;-39
2022/09/09 06:15:58;;;;;;;3.55;1.70;;;16.20;99.90;;;;;;5062611;28;20062;-38
2022/09/09 06:18:24;;;;;;;3.97;1.55;;;16.20;99.90;;;;;;5064144;28;20039;-37
2022/09/09 06:21:01;;;;;;;2.13;1.70;;;16.30;99.90;;;;;;5063221;28;20028;-37
2022/09/09 06:23:28;;;;;;;1.90;1.35;;;16.30;99.90;;;;;;5063154;28;20029;-37
2022/09/09 06:26:06;;;;;;;4.55;1.90;;;16.30;99.90;;;;;;5063589;28;20032;-37
2022/09/09 06:28:36;;;;;;;5.05;1.98;;;16.40;99.90;;;;;;5063019;28;20071;-38
2022/09/09 06:31:04;;;;;;;3.47;1.77;;;16.40;99.90;;;;;;5064221;28;20020;-39
2022/09/09 06:33:39;;;;;;;4.03;2.03;;;16.40;99.90;;;;;;5063701;28;20491;-37
2022/09/09 06:36:05;;;;;;;8.38;1.95;;;16.50;99.90;;;;;;5063678;28;20024;-37
2022/09/09 06:38:33;;;;;;;3.17;1.70;;;16.60;99.90;;;;;;5063840;28;20036;-35
2022/09/09 06:40:59;;;;;;;3.63;1.65;;;16.60;99.90;;;;;;5063824;28;20373;-37
2022/09/09 06:43:26;;;;;;;4.20;1.52;;;16.60;99.90;;;;;;5063289;28;20450;-35
2022/09/09 06:46:04;;;;;;;4.65;1.85;;;16.60;99.90;;;;;;5063164;28;20039;-36
2022/09/09 06:48:30;;;;;;;4.32;1.90;;;16.60;99.90;;;;;;5063416;28;20032;-36
2022/09/09 06:51:13;;;;;;;6.88;1.90;;;16.70;99.90;;;;;;5064307;28;20016;-38
2022/09/09 06:53:40;;;;;;;3.80;2.20;;;16.80;99.90;;;;;;5055043;28;20515;-37
2022/09/09 06:56:20;;;;;;;6.32;3.17;;;16.90;99.90;;;;;;5063554;28;20113;-39
2022/09/09 06:58:48;;;;;;;5.65;2.42;;;16.90;99.90;;;;;;5053892;28;20743;-37
2022/09/09 07:01:16;;;;;;;5.75;1.90;;;16.90;99.90;;;;;;5063850;28;20430;-38
2022/09/09 07:03:47;;;;;;;4.15;1.60;;;17.00;99.90;;;;;;5062667;28;20021;-40
2022/09/09 07:06:19;;;;;;;3.92;1.85;;;17.00;99.90;;;;;;5064293;28;20384;-37
2022/09/09 07:08:50;;;;;;;5.20;2.00;;;17.00;99.90;;;;;;5063530;28;20041;-38
2022/09/09 07:11:15;;;;;;;4.88;1.83;;;17.10;99.90;;;;;;5062980;28;20533;-37
2022/09/09 07:13:42;;;;;;;3.15;1.20;;;17.20;99.90;;;;;;5063564;28;20029;-38
2022/09/09 07:16:09;;;;;;;5.95;2.08;;;17.20;99.90;;;;;;5064051;28;20028;-37
2022/09/09 07:18:35;;;;;;;5.55;1.50;;;17.30;99.90;;;;;;5062735;28;20697;-36
2022/09/09 07:21:03;;;;;;;4.53;1.60;;;17.40;99.90;;;;;;5064020;28;20555;-39
2022/09/09 07:23:29;;;;;;;3.53;1.48;;;17.50;99.90;;;;;;5062073;28;20032;-36
2022/09/09 07:25:56;;;;;;;5.70;1.73;;;17.50;99.90;;;;;;5062741;28;20108;-36
2022/09/09 07:28:22;;;;;;;3.67;1.65;;;17.60;99.90;;;;;;5064083;28;20075;-37
2022/09/09 07:31:00;;;;;;;4.47;1.73;;;17.60;99.90;;;;;;5063621;28;20103;-39
2022/09/09 07:33:26;;;;;;;3.53;1.60;;;17.60;99.90;;;;;;5062585;28;20024;-37
2022/09/09 07:35:52;;;;;;;6.38;1.70;;;17.70;99.90;;;;;;5067008;28;20024;-37
2022/09/09 07:38:19;;;;;;;4.30;1.70;;;17.70;99.90;;;;;;5066791;28;20548;-38
2022/09/09 07:40:45;;;;;;;4.25;1.85;;;17.80;99.90;;;;;;5065819;28;20056;-38
2022/09/09 07:43:11;;;;;;;4.63;1.75;;;17.80;99.90;;;;;;5066613;28;20132;-37
2022/09/09 07:45:38;;;;;;;3.55;1.48;;;17.90;99.90;;;;;;5067246;28;20016;-38
2022/09/09 07:48:05;;;;;;;4.10;1.30;;;18.00;99.90;;;;;;5065799;28;20036;-36
2022/09/09 07:50:30;;;;;;;5.22;1.88;;;18.10;99.90;;;;;;5066960;28;20044;-37
2022/09/09 07:52:56;;;;;;;3.40;1.25;;;18.10;99.90;;;;;;5065640;28;20021;-37
2022/09/09 07:55:25;;;;;;;4.97;1.40;;;18.20;99.90;;;;;;5066745;28;20513;-37
2022/09/09 07:57:51;;;;;;;5.22;1.90;;;18.20;99.90;;;;;;5067047;28;20050;-39
2022/09/09 08:00:18;;;;;;;5.60;2.15;;;18.30;99.90;;;;;;5066295;28;20024;-37
2022/09/09 08:02:44;;;;;;;5.80;2.03;;;18.30;99.90;;;;;;5066135;28;20044;-37
2022/09/09 08:05:09;;;;;;;5.53;1.60;;;18.30;99.90;;;;;;5066762;28;20031;-38
2022/09/09 08:07:35;;;;;;;5.07;2.75;;;18.30;99.90;;;;;;5065801;28;20032;-37
2022/09/09 08:10:01;;;;;;;3.45;1.20;;;18.30;99.90;;;;;;5066489;28;20035;-39
2022/09/09 08:12:27;;;;;;;3.35;1.50;;;18.30;99.90;;;;;;5066587;28;20033;-37
2022/09/09 08:14:53;;;;;;;5.88;1.60;;;18.30;99.90;;;;;;5065766;28;20027;-37
2022/09/09 08:17:19;;;;;;;4.57;1.40;;;18.30;99.90;;;;;;5066443;28;20024;-37
2022/09/09 08:19:45;;;;;;;4.93;1.40;;;18.30;99.90;;;;;;5065538;28;20038;-37
2022/09/09 08:22:11;;;;;;;2.92;1.30;;;18.30;99.90;;;;;;5066013;28;20392;-37
2022/09/09 08:24:36;;;;;;;4.45;1.50;;;18.30;99.90;;;;;;5065774;28;20078;-37
2022/09/09 08:27:02;;;;;;;3.45;1.20;;;18.40;99.90;;;;;;5067059;28;20423;-37
2022/09/09 08:29:28;;;;;;;3.42;1.30;;;18.40;99.90;;;;;;5064957;28;20070;-39
2022/09/09 08:31:57;;;;;;;3.35;1.45;;;18.40;99.90;;;;;;5066000;28;20412;-38
2022/09/09 08:34:25;;;;;;;10.90;3.08;;;18.40;99.90;;;;;;5065878;28;20021;-37
2022/09/09 08:36:51;;;;;;;3.78;1.40;;;18.40;99.90;;;;;;5054819;28;20020;-37
2022/09/09 08:39:19;;;;;;;4.88;1.35;;;18.40;99.90;;;;;;5065828;28;20426;-36
2022/09/09 08:42:04;;;;;;;3.97;1.48;;;18.40;99.90;;;;;;5065230;28;20392;-38
2022/09/09 08:44:57;;;;;;;2.60;1.20;;;18.40;99.90;;;;;;5064952;28;20163;-39
2022/09/09 08:47:36;;;;;;;3.33;1.20;;;18.40;99.90;;;;;;5056925;28;20040;-38
2022/09/09 08:50:24;;;;;;;4.30;1.60;;;18.40;99.90;;;;;;5064784;28;20024;-38
2022/09/09 08:52:55;;;;;;;5.72;1.48;;;18.50;99.90;;;;;;5065382;28;20119;-36
2022/09/09 08:55:44;;;;;;;4.97;1.48;;;18.40;99.90;;;;;;5065037;28;20078;-38
2022/09/09 08:58:19;;;;;;;5.40;1.63;;;18.40;99.90;;;;;;5065437;28;20048;-40
2022/09/09 09:01:01;;;;;;;6.82;1.80;;;18.40;99.90;;;;;;5064930;28;20037;-36
2022/09/09 09:03:34;;;;;;;;;;;18.40;99.90;;;;;;5064644;28;20025;-38
2022/09/09 09:06:19;;;;;;;;;;;18.40;99.90;;;;;;5065938;28;19930;-38
2022/09/09 09:08:58;;;;;;;6.35;1.63;;;18.40;99.90;;;;;;5065226;28;19932;-40
2022/09/09 09:11:23;;;;;;;5.50;1.38;;;18.40;99.90;;;;;;5064693;28;20383;-40
2022/09/09 09:14:05;;;;;;;5.43;1.35;;;18.40;99.90;;;;;;5065270;28;20059;-37
2022/09/09 09:16:41;;;;;;;4.95;1.30;;;18.60;99.90;;;;;;5065082;28;20086;-38
2022/09/09 09:19:14;;;;;;;4.95;1.20;;;18.70;99.90;;;;;;5064137;28;20054;-37
2022/09/09 09:21:48;;;;;;;2.05;1.00;;;18.70;99.90;;;;;;5064503;28;20035;-37
2022/09/09 09:24:37;;;;;;;3.85;1.23;;;18.70;99.90;;;;;;5064388;28;20495;-36
2022/09/09 09:27:18;;;;;;;2.90;1.02;;;18.70;99.90;;;;;;5064318;28;20518;-36
2022/09/09 09:29:45;;;;;;;6.15;1.52;;;18.70;99.90;;;;;;5064489;28;20366;-36
2022/09/09 09:32:16;;;;;;;3.03;1.13;;;18.70;99.90;;;;;;5064645;28;20016;-36
2022/09/09 09:34:41;;;;;;;3.30;1.40;;;18.60;99.90;;;;;;5064479;28;20107;-37
2022/09/09 09:37:19;;;;;;;3.47;1.30;;;18.60;99.90;;;;;;5064869;28;20485;-37
2022/09/09 09:39:45;;;;;;;3.05;1.17;;;18.60;99.90;;;;;;5064280;28;20035;-37
2022/09/09 09:42:17;;;;;;;4.10;1.60;;;18.60;99.90;;;;;;5064481;28;20029;-36
2022/09/09 09:44:43;;;;;;;3.75;1.40;;;18.70;99.90;;;;;;5064649;28;20024;-37
2022/09/09 09:47:20;;;;;;;5.97;1.38;;;18.70;99.90;;;;;;5063457;28;20118;-36
2022/09/09 09:49:58;;;;;;;5.57;1.02;;;18.80;99.90;;;;;;5064453;28;20114;-36
2022/09/09 09:52:28;;;;;;;2.67;1.10;;;18.80;99.90;;;;;;5063823;28;20024;-36
2022/09/09 09:54:55;;;;;;;3.83;1.13;;;18.90;99.90;;;;;;5064007;28;20035;-37
2022/09/09 09:57:29;;;;;;;4.72;1.40;;;19.10;99.90;;;;;;5064014;28;20041;-37
2022/09/09 10:00:16;;;;;;;4.63;1.20;;;19.20;99.90;;;;;;5063979;28;20043;-36
2022/09/09 10:02:43;;;;;;;6.07;1.45;;;19.30;99.90;;;;;;5064460;28;20468;-37
2022/09/09 10:05:12;;;;;;;6.68;1.42;;;19.40;99.90;;;;;;5064750;28;20039;-37
2022/09/09 10:07:38;;;;;;;3.90;1.10;;;19.40;99.90;;;;;;5063340;28;20068;-39
2022/09/09 10:10:05;;;;;;;4.05;1.70;;;19.40;99.90;;;;;;5064649;28;20025;-37
2022/09/09 10:12:39;;;;;;;4.10;1.27;;;19.30;99.90;;;;;;5064338;28;20055;-37
2022/09/09 10:15:30;;;;;;;4.70;1.50;;;19.30;99.90;;;;;;5063740;28;20034;-37
2022/09/09 10:18:14;;;;;;;3.70;1.45;;;19.20;99.90;;;;;;5062602;28;20029;-37
2022/09/09 10:20:56;;;;;;;3.47;1.20;;;19.20;99.90;;;;;;5061396;28;20032;-38
2022/09/09 10:23:47;;;;;;;3.72;1.55;;;19.10;99.90;;;;;;5063451;28;20024;-36
2022/09/09 10:26:39;;;;;;;4.97;1.40;;;19.10;99.90;;;;;;5061697;28;20448;-36
2022/09/09 10:29:17;;;;;;;5.90;1.30;;;19.10;99.90;;;;;;5063085;28;20040;-36
2022/09/09 10:32:01;;;;;;;4.60;1.30;;;19.00;99.90;;;;;;5063349;28;20412;-37
2022/09/09 10:34:45;;;;;;;8.88;1.50;;;19.00;99.90;;;;;;5060794;28;20102;-36
2022/09/09 10:37:43;;;;;;;2.75;1.33;;;19.10;99.90;;;;;;5063677;28;20107;-38
2022/09/09 10:40:31;;;;;;;6.15;1.50;;;19.20;99.90;;;;;;5062982;28;20032;-38
2022/09/09 10:43:30;;;;;;;2.55;1.00;;;19.20;99.90;;;;;;5043644;28;20056;-36
2022/09/09 10:45:56;;;;;;;6.78;1.67;;;19.10;99.90;;;;;;5050928;28;20040;-37
2022/09/09 10:48:33;;;;;;;3.65;1.40;;;19.10;99.90;;;;;;5063720;28;20032;-36
2022/09/09 10:51:03;;;;;;;4.57;1.20;;;19.10;99.90;;;;;;5062693;28;20476;-37
2022/09/09 10:53:50;;;;;;;5.32;1.35;;;19.20;99.90;;;;;;5063721;28;20040;-36
2022/09/09 10:56:18;;;;;;;4.75;1.20;;;19.20;99.90;;;;;;5060909;28;20496;-38
2022/09/09 10:59:24;;;;;;;2.00;1.00;;;19.20;99.90;;;;;;5063662;28;20028;-38
2022/09/09 11:01:57;;;;;;;6.47;1.85;;;19.30;99.90;;;;;;5062674;28;20124;-37
2022/09/09 11:04:34;;;;;;;5.07;1.52;;;19.30;99.90;;;;;;5063257;28;20020;-37
2022/09/09 11:07:05;;;;;;;4.35;1.75;;;19.30;99.90;;;;;;5054116;28;20033;-39
2022/09/09 11:09:39;;;;;;;4.10;1.30;;;19.20;99.90;;;;;;5066870;28;20441;-37
2022/09/09 11:12:10;;;;;;;5.45;1.65;;;19.20;99.90;;;;;;5059989;28;20476;-37
2022/09/09 11:15:10;;;;;;;4.37;1.13;;;19.20;99.90;;;;;;5066921;28;20028;-40
2022/09/09 11:17:42;;;;;;;4.57;1.45;;;19.10;99.90;;;;;;5050114;28;20036;-42
2022/09/09 11:20:12;;;;;;;4.13;1.50;;;19.00;99.90;;;;;;5066647;28;20028;-38
2022/09/09 11:22:43;;;;;;;4.57;1.30;;;18.80;99.90;;;;;;5067047;28;20021;-39
2022/09/09 11:25:15;;;;;;;3.95;1.40;;;18.70;99.90;;;;;;5066789;28;20077;-36
2022/09/09 11:28:16;;;;;;;6.35;1.42;;;18.60;99.90;;;;;;5067156;28;20079;-37
2022/09/09 11:31:12;;;;;;;4.00;1.50;;;18.60;99.90;;;;;;5067034;28;20029;-37
2022/09/09 11:34:14;;;;;;;5.38;1.52;;;18.80;99.90;;;;;;5067080;28;20036;-38
2022/09/09 11:37:14;;;;;;;4.82;1.42;;;19.00;99.90;;;;;;5067560;28;20063;-38
2022/09/09 11:39:57;;;;;;;3.83;1.40;;;19.20;99.90;;;;;;5046753;28;20467;-37
2022/09/09 11:42:24;;;;;;;4.03;1.50;;;19.20;99.90;;;;;;5067063;28;20013;-38
2022/09/09 11:44:51;;;;;;;2.80;1.20;;;19.10;99.90;;;;;;5066754;28;20023;-37
2022/09/09 11:47:31;;;;;;;2.83;1.20;;;19.10;99.90;;;;;;5067553;28;20029;-38
2022/09/09 11:50:14;;;;;;;4.03;1.50;;;19.10;99.90;;;;;;5067369;28;20362;-38
2022/09/09 11:52:46;;;;;;;4.28;1.45;;;19.20;99.90;;;;;;5065818;28;20364;-39
2022/09/09 11:55:32;;;;;;;3.67;1.65;;;19.20;99.90;;;;;;5067275;28;20519;-38
2022/09/09 11:58:00;;;;;;;2.03;1.10;;;19.20;99.90;;;;;;5066398;28;20120;-38
2022/09/09 12:00:46;;;;;;;3.22;1.10;;;19.20;99.90;;;;;;5066339;28;20020;-37
2022/09/09 12:03:34;;;;;;;3.70;1.20;;;19.20;99.90;;;;;;5066592;28;20028;-37
2022/09/09 12:06:08;;;;;;;1.92;1.02;;;19.20;99.90;;;;;;5066198;28;20466;-39
2022/09/09 12:08:36;;;;;;;3.58;1.10;;;19.30;99.90;;;;;;5063679;28;20052;-37
2022/09/09 12:11:04;;;;;;;4.35;1.42;;;19.40;99.90;;;;;;5066356;28;20487;-38
2022/09/09 12:13:31;;;;;;;5.47;1.20;;;19.60;99.90;;;;;;5065129;28;20028;-37
2022/09/09 12:15:59;;;;;;;4.10;1.30;;;19.70;99.90;;;;;;5066617;28;20092;-40
2022/09/09 12:18:39;;;;;;;4.60;1.60;;;19.70;99.90;;;;;;5066164;28;20029;-38
2022/09/09 12:21:26;;;;;;;3.22;1.00;;;19.70;99.90;;;;;;5065656;28;20028;-38
2022/09/09 12:24:10;;;;;;;2.95;1.17;;;19.60;99.90;;;;;;5065716;28;20024;-38
2022/09/09 12:26:44;;;;;;;3.03;1.08;;;19.60;99.90;;;;;;5066876;28;20100;-36
2022/09/09 12:29:19;;;;;;;3.90;1.38;;;19.60;99.90;;;;;;5062633;28;20029;-38
2022/09/09 12:31:50;;;;;;;2.15;1.10;;;19.60;99.90;;;;;;5066067;28;20180;-37
2022/09/09 12:34:35;;;;;;;2.78;1.20;;;19.50;99.90;;;;;;5065104;28;20039;-37
2022/09/09 12:37:18;;;;;;;3.25;1.13;;;19.50;99.90;;;;;;5066405;28;20027;-38
2022/09/09 12:40:06;;;;;;;4.55;1.30;;;19.50;99.90;;;;;;5064405;28;20793;-37
2022/09/09 12:42:33;;;;;;;2.40;1.20;;;19.60;99.90;;;;;;5064833;28;20066;-37
2022/09/09 12:45:00;;;;;;;3.00;1.00;;;19.60;99.90;;;;;;5065748;28;20051;-37
2022/09/09 12:47:41;;;;;;;2.13;0.90;;;19.70;99.90;;;;;;5065374;28;20347;-37
2022/09/09 12:50:30;;;;;;;2.67;0.90;;;19.80;99.90;;;;;;5064834;28;20032;-37
2022/09/09 12:52:58;;;;;;;2.35;1.10;;;19.90;99.90;;;;;;5065247;28;20102;-36
2022/09/09 12:55:36;;;;;;;1.92;1.00;;;19.90;99.90;;;;;;5064876;28;20040;-37
2022/09/09 12:58:05;;;;;;;3.22;1.02;;;19.90;99.90;;;;;;5065004;28;20028;-37
2022/09/09 13:00:32;;;;;;;2.33;1.08;;;19.90;99.90;;;;;;5065027;28;20066;-37
2022/09/09 13:03:14;;;;;;;2.45;1.15;;;19.80;99.90;;;;;;5064225;28;20041;-37
2022/09/09 13:05:40;;;;;;;2.73;1.13;;;19.80;99.90;;;;;;5065841;28;20036;-37
2022/09/09 13:08:10;;;;;;;3.17;1.33;;;19.90;99.90;;;;;;5065033;28;20483;-38
2022/09/09 13:10:47;;;;;;;2.42;1.10;;;19.90;99.90;;;;;;5064631;28;20074;-37
2022/09/09 13:13:26;;;;;;;2.17;0.90;;;20.00;99.90;;;;;;5046633;28;20028;-37
2022/09/09 13:16:00;;;;;;;3.65;1.23;;;19.90;99.90;;;;;;5062667;28;20475;-37
2022/09/09 13:18:29;;;;;;;2.75;1.20;;;20.00;99.90;;;;;;5063717;28;20120;-37